createdAt,value
2023-01-30T00:01:32.335Z,101645.03
2023-01-30T00:04:02.150Z,101636.16
2023-01-30T00:06:30.677Z,101641.59
2023-01-30T00:08:59.150Z,101631.84
2023-01-30T00:11:30.001Z,101648.66
2023-01-30T00:13:58.508Z,101627.59
2023-01-30T00:16:27.096Z,101633.66
2023-01-30T00:18:55.999Z,101632.81
2023-01-30T00:21:25.743Z,101633.69
2023-01-30T00:23:54.077Z,101633.59
2023-01-30T00:26:22.470Z,101607.91
2023-01-30T00:28:50.853Z,101569.94
2023-01-30T00:31:19.620Z,101606.22
2023-01-30T00:33:48.077Z,101618.69
2023-01-30T00:36:16.541Z,101609.91
2023-01-30T00:38:46.353Z,101609.94
2023-01-30T00:41:15.370Z,101616.94
2023-01-30T00:44:01.293Z,101601.91
2023-01-30T00:46:59.263Z,101584.22
2023-01-30T00:49:27.904Z,101578.09
2023-01-30T00:51:56.401Z,101586.00
2023-01-30T00:54:26.263Z,101589.50
2023-01-30T00:56:54.704Z,101594.84
2023-01-30T00:59:27.037Z,101579.81
2023-01-30T01:01:55.892Z,101570.97
2023-01-30T01:04:24.445Z,101559.56
2023-01-30T01:06:52.826Z,101538.47
2023-01-30T01:09:21.514Z,101522.59
2023-01-30T01:11:51.229Z,101524.34
2023-01-30T01:14:19.719Z,101522.47
2023-01-30T01:16:48.530Z,101503.13
2023-01-30T01:19:16.930Z,101515.09
2023-01-30T01:21:45.245Z,101519.16
2023-01-30T01:24:16.259Z,101519.94
2023-01-30T01:26:45.059Z,101516.47
2023-01-30T01:29:16.620Z,101518.22
2023-01-30T01:31:45.516Z,101524.38
2023-01-30T01:34:14.442Z,101513.78
2023-01-30T01:36:54.620Z,101525.19
2023-01-30T01:39:23.827Z,101483.56
2023-01-30T01:41:51.636Z,101512.81
2023-01-30T01:44:21.498Z,101526.09
2023-01-30T01:46:53.093Z,101555.19
2023-01-30T01:49:25.664Z,101523.44
2023-01-30T01:51:59.488Z,101528.78
2023-01-30T01:54:35.377Z,101537.66
2023-01-30T01:57:08.137Z,101531.41
2023-01-30T01:59:44.225Z,101528.84
2023-01-30T02:02:15.982Z,101534.97
2023-01-30T02:05:05.163Z,101538.56
2023-01-30T02:07:39.885Z,101519.06
2023-01-30T02:10:10.998Z,101541.16
2023-01-30T02:12:40.539Z,101538.56
2023-01-30T02:15:12.798Z,101565.75
2023-01-30T02:17:41.322Z,101527.94
2023-01-30T02:20:24.724Z,101522.47
2023-01-30T02:23:25.769Z,101529.75
2023-01-30T02:26:32.670Z,101507.75
2023-01-30T02:29:28.817Z,101498.91
2023-01-30T02:32:05.030Z,101496.28
2023-01-30T02:34:48.391Z,101505.09
2023-01-30T02:37:30.980Z,101510.41
2023-01-30T02:40:18.690Z,101505.88
2023-01-30T02:42:58.791Z,101523.44
2023-01-30T02:45:35.344Z,101493.56
2023-01-30T02:48:07.408Z,101502.41
2023-01-30T02:50:42.035Z,101510.34
2023-01-30T02:53:11.885Z,101505.84
2023-01-30T02:55:43.335Z,101517.31
2023-01-30T02:58:13.493Z,101497.97
2023-01-30T03:01:21.917Z,101495.28
2023-01-30T03:04:09.512Z,101463.38
2023-01-30T03:07:04.062Z,101504.94
2023-01-30T03:09:44.562Z,101494.41
2023-01-30T03:12:19.990Z,101492.63
2023-01-30T03:14:52.892Z,101490.81
2023-01-30T03:17:23.714Z,101504.94
2023-01-30T03:19:56.284Z,101492.63
2023-01-30T03:22:24.646Z,101496.09
2023-01-30T03:24:54.817Z,101502.25
2023-01-30T03:27:23.933Z,101504.06
2023-01-30T03:29:52.246Z,101481.88
2023-01-30T03:32:20.506Z,101499.59
2023-01-30T03:34:48.901Z,101504.06
2023-01-30T03:37:18.699Z,101475.81
2023-01-30T03:39:47.227Z,101494.31
2023-01-30T03:42:16.899Z,101456.31
2023-01-30T03:44:45.193Z,101493.41
2023-01-30T03:47:14.857Z,101494.31
2023-01-30T03:49:43.410Z,101490.72
2023-01-30T03:52:11.694Z,101492.47
2023-01-30T03:54:41.294Z,101489.78
2023-01-30T03:57:09.963Z,101481.78
2023-01-30T03:59:38.337Z,101503.97
2023-01-30T04:02:10.185Z,101497.75
2023-01-30T04:04:38.721Z,101483.63
2023-01-30T04:07:09.731Z,101492.50
2023-01-30T04:09:40.772Z,101495.06
2023-01-30T04:12:09.421Z,101453.47
2023-01-30T04:14:43.863Z,101504.69
2023-01-30T04:17:40.780Z,101507.28
2023-01-30T04:20:19.588Z,101505.44
2023-01-30T04:22:52.568Z,101486.84
2023-01-30T04:25:23.047Z,101494.59
2023-01-30T04:27:51.824Z,101463.59
2023-01-30T04:30:23.940Z,101490.22
2023-01-30T04:32:56.687Z,101503.41
2023-01-30T04:35:25.103Z,101515.72
2023-01-30T04:37:53.349Z,101503.41
2023-01-30T04:40:23.563Z,101510.44
2023-01-30T04:42:51.927Z,101505.91
2023-01-30T04:45:58.582Z,101507.84
2023-01-30T04:48:27.908Z,101525.59
2023-01-30T04:50:58.620Z,101515.94
2023-01-30T04:53:27.496Z,101532.75
2023-01-30T04:55:57.179Z,101531.88
2023-01-30T04:58:25.535Z,101517.69
2023-01-30T05:00:54.022Z,101544.09
2023-01-30T05:03:22.339Z,101530.88
2023-01-30T05:05:50.558Z,101530.72
2023-01-30T05:08:18.845Z,101521.06
2023-01-30T05:10:47.066Z,101507.69
2023-01-30T05:13:16.764Z,101528.09
2023-01-30T05:15:46.732Z,101545.53
2023-01-30T05:18:15.132Z,101538.44
2023-01-30T05:20:43.406Z,101541.94
2023-01-30T05:23:11.759Z,101538.47
2023-01-30T05:25:40.036Z,101525.09
2023-01-30T05:28:08.520Z,101534.00
2023-01-30T05:30:38.545Z,101539.13
2023-01-30T05:33:06.900Z,101532.13
2023-01-30T05:35:35.102Z,101523.22
2023-01-30T05:38:03.579Z,101530.38
2023-01-30T05:40:31.870Z,101540.94
2023-01-30T05:43:00.116Z,101559.31
2023-01-30T05:45:28.393Z,101562.84
2023-01-30T05:48:01.250Z,101546.13
2023-01-30T05:50:30.213Z,101547.78
2023-01-30T05:52:59.263Z,101548.56
2023-01-30T05:55:27.603Z,101548.56
2023-01-30T05:57:55.840Z,101549.38
2023-01-30T06:00:24.341Z,101536.06
2023-01-30T06:02:52.642Z,101540.63
2023-01-30T06:05:22.290Z,101558.09
2023-01-30T06:07:50.479Z,101569.66
2023-01-30T06:10:19.312Z,101574.75
2023-01-30T06:12:47.547Z,101557.13
2023-01-30T06:15:16.547Z,101572.91
2023-01-30T06:17:45.324Z,101571.00
2023-01-30T06:20:14.195Z,101551.75
2023-01-30T06:22:43.846Z,101538.56
2023-01-30T06:25:12.740Z,101559.72
2023-01-30T06:27:41.076Z,101552.72
2023-01-30T06:30:11.249Z,101546.34
2023-01-30T06:32:39.668Z,101552.63
2023-01-30T06:35:09.363Z,101493.88
2023-01-30T06:37:37.602Z,101560.47
2023-01-30T06:40:08.809Z,101554.19
2023-01-30T06:42:37.037Z,101533.03
2023-01-30T06:45:06.515Z,101535.63
2023-01-30T06:47:34.791Z,101551.56
2023-01-30T06:50:03.001Z,101549.69
2023-01-30T06:52:31.252Z,101561.16
2023-01-30T06:54:59.538Z,101561.97
2023-01-30T06:57:29.316Z,101570.78
2023-01-30T06:59:57.632Z,101579.59
2023-01-30T07:02:25.884Z,101574.31
2023-01-30T07:04:54.153Z,101586.69
2023-01-30T07:07:22.385Z,101566.31
2023-01-30T07:10:05.825Z,101594.47
2023-01-30T07:12:37.288Z,101578.66
2023-01-30T07:15:07.632Z,101590.97
2023-01-30T07:17:35.973Z,101572.91
2023-01-30T07:20:04.624Z,101593.59
2023-01-30T07:22:32.886Z,101589.22
2023-01-30T07:25:01.141Z,101591.69
2023-01-30T07:27:29.396Z,101613.78
2023-01-30T07:29:59.014Z,101616.50
2023-01-30T07:32:27.398Z,101619.94
2023-01-30T07:34:55.711Z,101626.19
2023-01-30T07:37:24.049Z,101609.50
2023-01-30T07:39:52.313Z,101616.53
2023-01-30T07:42:20.519Z,101619.25
2023-01-30T07:44:48.794Z,101600.69
2023-01-30T07:47:20.090Z,101599.97
2023-01-30T07:49:48.441Z,101592.88
2023-01-30T07:52:16.951Z,101585.81
2023-01-30T07:54:45.325Z,101620.25
2023-01-30T07:57:13.795Z,101596.66
2023-01-30T07:59:42.916Z,101601.81
2023-01-30T08:02:12.299Z,101601.13
2023-01-30T08:04:42.304Z,101623.31
2023-01-30T08:07:10.681Z,101635.44
2023-01-30T08:09:39.037Z,101639.19
2023-01-30T08:12:07.770Z,101653.34
2023-01-30T08:14:36.080Z,101639.38
2023-01-30T08:17:04.412Z,101620.22
2023-01-30T08:19:32.684Z,101645.09
2023-01-30T08:22:02.333Z,101646.94
2023-01-30T08:24:30.574Z,101636.31
2023-01-30T08:27:00.409Z,101537.94
2023-01-30T08:29:28.768Z,101650.44
2023-01-30T08:31:59.072Z,101666.53
2023-01-30T08:34:27.888Z,101662.13
2023-01-30T08:36:56.131Z,101659.50
2023-01-30T08:39:25.759Z,101666.63
2023-01-30T08:41:54.147Z,101677.25
2023-01-30T08:44:22.497Z,101669.25
2023-01-30T08:46:50.719Z,101686.91
2023-01-30T08:49:19.267Z,101672.91
2023-01-30T08:51:47.514Z,101690.53
2023-01-30T08:54:15.876Z,101706.38
2023-01-30T08:56:45.515Z,101693.94
2023-01-30T08:59:14.019Z,101709.50
2023-01-30T09:01:42.330Z,101709.41
2023-01-30T09:04:10.952Z,101703.22
2023-01-30T09:06:39.203Z,101717.50
2023-01-30T09:09:07.502Z,101698.66
2023-01-30T09:11:35.709Z,101717.44
2023-01-30T09:14:05.437Z,101722.88
2023-01-30T09:16:33.757Z,101706.25
2023-01-30T09:19:02.053Z,101721.13
2023-01-30T09:21:32.052Z,101735.28
2023-01-30T09:24:00.423Z,101719.69
2023-01-30T09:26:28.714Z,101732.09
2023-01-30T09:28:57.160Z,101739.34
2023-01-30T09:31:26.970Z,101742.06
2023-01-30T09:33:55.264Z,101734.34
2023-01-30T09:36:23.627Z,101737.72
2023-01-30T09:38:51.908Z,101734.00
2023-01-30T09:41:54.899Z,101715.25
2023-01-30T09:44:58.973Z,101760.81
2023-01-30T09:47:41.460Z,101756.19
2023-01-30T09:50:45.152Z,101775.81
2023-01-30T09:53:21.821Z,101783.59
2023-01-30T09:55:50.476Z,101766.47
2023-01-30T09:58:22.642Z,101752.41
2023-01-30T10:00:55.875Z,101770.09
2023-01-30T10:03:32.531Z,101781.78
2023-01-30T10:06:07.363Z,101789.13
2023-01-30T10:08:50.065Z,101784.53
2023-01-30T10:11:35.040Z,101805.56
2023-01-30T10:14:51.494Z,101802.78
2023-01-30T10:17:36.076Z,101795.81
2023-01-30T10:20:39.558Z,101807.16
2023-01-30T10:23:44.868Z,101814.50
2023-01-30T10:26:16.529Z,101817.53
2023-01-30T10:29:06.163Z,101808.75
2023-01-30T10:31:45.109Z,101823.63
2023-01-30T10:34:19.468Z,101820.13
2023-01-30T10:36:55.894Z,101828.16
2023-01-30T10:39:30.999Z,101821.13
2023-01-30T10:42:10.921Z,101833.44
2023-01-30T10:44:42.655Z,101823.63
2023-01-30T10:47:47.039Z,101819.03
2023-01-30T10:50:20.890Z,101849.97
2023-01-30T10:52:58.776Z,101834.84
2023-01-30T10:55:38.413Z,101839.41
2023-01-30T10:58:19.032Z,101843.94
2023-01-30T11:00:57.065Z,101838.72
2023-01-30T11:03:36.841Z,101850.56
2023-01-30T11:06:09.695Z,101837.34
2023-01-30T11:08:39.603Z,101840.94
2023-01-30T11:11:27.738Z,101835.72
2023-01-30T11:14:07.664Z,101858.00
2023-01-30T11:16:45.369Z,101840.56
2023-01-30T11:19:20.905Z,101809.28
2023-01-30T11:21:52.634Z,101856.19
2023-01-30T11:24:25.626Z,101814.91
2023-01-30T11:26:54.064Z,101840.91
2023-01-30T11:29:29.647Z,101835.34
2023-01-30T11:32:02.887Z,101834.53
2023-01-30T11:34:31.722Z,101838.25
2023-01-30T11:37:16.171Z,101824.88
2023-01-30T11:39:53.673Z,101844.13
2023-01-30T11:42:29.518Z,101842.44
2023-01-30T11:45:15.966Z,101848.63
2023-01-30T11:48:04.617Z,101841.59
2023-01-30T11:50:43.853Z,101839.53
2023-01-30T11:53:30.298Z,101838.66
2023-01-30T11:56:08.522Z,101840.28
2023-01-30T11:58:40.972Z,101829.09
2023-01-30T12:01:12.034Z,101851.56
2023-01-30T12:03:49.650Z,101839.53
2023-01-30T12:06:32.308Z,101834.47
2023-01-30T12:09:01.409Z,101843.66
2023-01-30T12:11:45.183Z,101854.47
2023-01-30T12:14:28.140Z,101853.41
2023-01-30T12:17:06.789Z,101847.22
2023-01-30T12:19:50.456Z,101843.66
2023-01-30T12:22:27.692Z,101838.03
2023-01-30T12:25:06.110Z,101843.47
2023-01-30T12:27:53.596Z,101849.81
2023-01-30T12:30:34.828Z,101845.09
2023-01-30T12:33:05.570Z,101846.97
2023-01-30T12:35:43.312Z,101844.06
2023-01-30T12:38:26.300Z,101850.03
2023-01-30T12:41:14.830Z,101852.97
2023-01-30T12:44:00.037Z,101837.88
2023-01-30T12:46:55.904Z,101862.75
2023-01-30T12:49:54.437Z,101852.91
2023-01-30T12:52:45.641Z,101830.56
2023-01-30T12:55:33.507Z,101872.94
2023-01-30T12:58:11.402Z,101869.38
2023-01-30T13:00:57.924Z,101861.63
2023-01-30T13:03:37.315Z,101865.78
2023-01-30T13:06:24.249Z,101875.06
2023-01-30T13:09:09.480Z,101870.69
2023-01-30T13:11:54.338Z,101875.94
2023-01-30T13:14:30.327Z,101879.66
2023-01-30T13:17:35.501Z,101884.25
2023-01-30T13:20:18.197Z,101891.34
2023-01-30T13:22:55.557Z,101848.59
2023-01-30T13:25:33.859Z,101886.56
2023-01-30T13:28:09.708Z,101889.44
2023-01-30T13:30:38.168Z,101873.56
2023-01-30T13:33:14.041Z,101881.28
2023-01-30T13:35:48.095Z,101898.25
2023-01-30T13:38:22.560Z,101898.38
2023-01-30T13:40:55.254Z,101861.91
2023-01-30T13:43:28.311Z,101907.19
2023-01-30T13:46:02.479Z,101902.75
2023-01-30T13:48:47.239Z,101903.72
2023-01-30T13:51:46.022Z,101930.09
2023-01-30T13:54:40.762Z,101939.75
2023-01-30T13:57:22.394Z,101940.53
2023-01-30T14:00:20.786Z,101906.75
2023-01-30T14:03:25.148Z,101948.16
2023-01-30T14:06:33.924Z,101945.63
2023-01-30T14:09:18.817Z,101963.53
2023-01-30T14:11:53.139Z,101963.44
2023-01-30T14:14:28.175Z,101970.47
2023-01-30T14:16:59.629Z,101975.03
2023-01-30T14:19:36.290Z,101955.38
2023-01-30T14:22:23.300Z,101986.19
2023-01-30T14:25:47.163Z,101988.16
2023-01-30T14:28:49.409Z,101979.06
2023-01-30T14:31:51.634Z,102002.19
2023-01-30T14:35:23.173Z,102017.41
2023-01-30T14:38:11.327Z,102017.69
2023-01-30T14:40:45.407Z,101940.47
2023-01-30T14:43:53.277Z,102015.91
2023-01-30T14:46:54.458Z,102035.34
2023-01-30T14:49:31.509Z,102041.09
2023-01-30T14:52:00.594Z,102041.00
2023-01-30T14:54:42.320Z,101938.63
2023-01-30T14:57:24.774Z,102054.00
2023-01-30T15:02:53.944Z,102066.84
2023-01-30T15:05:31.722Z,102067.91
2023-01-30T15:08:08.063Z,102066.28
2023-01-30T15:10:59.325Z,102069.84
2023-01-30T15:13:55.517Z,102073.63
2023-01-30T15:16:50.202Z,102068.94
2023-01-30T15:20:00.610Z,102079.28
2023-01-30T15:22:38.391Z,102087.06
2023-01-30T15:25:31.717Z,102081.88
2023-01-30T15:28:19.253Z,102069.31
2023-01-30T15:31:01.695Z,102085.44
2023-01-30T15:33:32.124Z,102102.66
2023-01-30T15:36:01.229Z,102106.00
2023-01-30T15:38:32.986Z,102098.31
2023-01-30T15:41:04.670Z,102111.38
2023-01-30T15:44:20.036Z,102127.38
2023-01-30T15:46:57.767Z,102120.81
2023-01-30T15:49:51.317Z,102135.13
2023-01-30T15:52:23.339Z,102131.53
2023-01-30T15:54:53.761Z,102108.34
2023-01-30T15:57:26.975Z,102142.13
2023-01-30T15:59:58.869Z,102146.53
2023-01-30T16:02:32.172Z,102156.09
2023-01-30T16:05:16.682Z,102149.38
2023-01-30T16:07:46.964Z,102151.81
2023-01-30T16:10:18.812Z,102159.81
2023-01-30T16:12:48.553Z,101967.03
2023-01-30T16:15:27.487Z,102153.94
2023-01-30T16:18:06.324Z,102162.66
2023-01-30T16:21:00.264Z,102148.56
2023-01-30T16:23:33.245Z,102071.97
2023-01-30T16:26:03.266Z,102171.34
2023-01-30T16:28:33.333Z,102144.81
2023-01-30T16:31:06.411Z,102182.06
2023-01-30T16:33:37.071Z,102194.78
2023-01-30T16:36:07.816Z,102183.03
2023-01-30T16:38:45.320Z,102180.91
2023-01-30T16:41:33.297Z,102190.19
2023-01-30T16:44:21.342Z,102197.31
2023-01-30T16:46:56.400Z,102186.19
2023-01-30T16:49:39.103Z,102203.81
2023-01-30T16:52:19.370Z,102201.47
2023-01-30T16:54:51.541Z,102213.91
2023-01-30T16:57:36.383Z,102213.44
2023-01-30T17:00:10.071Z,102110.66
2023-01-30T17:02:43.372Z,102231.84
2023-01-30T17:05:20.134Z,102236.28
2023-01-30T17:07:50.244Z,102213.34
2023-01-30T17:10:55.513Z,102239.28
2023-01-30T17:13:36.563Z,102240.66
2023-01-30T17:16:35.349Z,102240.25
2023-01-30T17:19:05.088Z,102257.41
2023-01-30T17:21:39.347Z,102267.38
2023-01-30T17:24:08.297Z,102275.75
2023-01-30T17:26:40.696Z,102271.72
2023-01-30T17:29:23.769Z,102274.31
2023-01-30T17:31:58.605Z,102263.66
2023-01-30T17:34:28.993Z,102288.28
2023-01-30T17:36:57.283Z,102291.16
2023-01-30T17:39:26.818Z,102290.88
2023-01-30T17:41:55.180Z,102306.78
2023-01-30T17:44:23.439Z,102301.81
2023-01-30T17:46:51.952Z,102310.59
2023-01-30T17:49:23.427Z,102310.75
2023-01-30T17:51:53.905Z,102307.00
2023-01-30T17:54:22.738Z,102303.63
2023-01-30T17:56:55.675Z,102308.63
2023-01-30T17:59:24.318Z,102310.38
2023-01-30T18:01:54.331Z,102308.84
2023-01-30T18:04:23.205Z,102313.25
2023-01-30T18:07:02.188Z,102311.31
2023-01-30T18:09:31.010Z,102324.69
2023-01-30T18:11:59.527Z,102309.00
2023-01-30T18:14:27.904Z,102301.25
2023-01-30T18:17:00.416Z,102330.78
2023-01-30T18:19:31.497Z,102336.16
2023-01-30T18:22:01.395Z,102341.03
2023-01-30T18:24:29.750Z,102337.59
2023-01-30T18:26:59.142Z,102332.47
2023-01-30T18:29:29.413Z,102335.09
2023-01-30T18:32:03.541Z,102341.31
2023-01-30T18:34:32.065Z,102335.94
2023-01-30T18:37:01.845Z,102341.63
2023-01-30T18:39:32.012Z,102348.66
2023-01-30T18:42:02.049Z,102355.22
2023-01-30T18:44:30.448Z,102360.06
2023-01-30T18:46:59.303Z,102359.09
2023-01-30T18:49:27.737Z,102366.00
2023-01-30T18:51:56.005Z,102369.81
2023-01-30T18:54:25.818Z,102373.38
2023-01-30T18:56:54.120Z,102373.28
2023-01-30T18:59:22.961Z,102378.41
2023-01-30T19:01:51.344Z,102388.19
2023-01-30T19:04:19.648Z,102394.09
2023-01-30T19:06:48.117Z,102396.03
2023-01-30T19:09:19.070Z,102361.75
2023-01-30T19:12:06.556Z,102385.19
2023-01-30T19:14:34.955Z,102407.13
2023-01-30T19:17:03.286Z,102400.53
2023-01-30T19:19:32.525Z,102403.03
2023-01-30T19:22:00.915Z,102407.38
2023-01-30T19:24:29.397Z,102412.50
2023-01-30T19:26:59.549Z,102411.28
2023-01-30T19:29:27.953Z,102416.16
2023-01-30T19:31:56.334Z,102416.91
2023-01-30T19:34:24.914Z,102407.22
2023-01-30T19:36:53.219Z,102409.22
2023-01-30T19:39:21.841Z,102411.09
2023-01-30T19:41:50.618Z,102410.06
2023-01-30T19:44:20.271Z,102411.81
2023-01-30T19:46:49.311Z,102401.00
2023-01-30T19:49:17.980Z,102397.41
2023-01-30T19:51:46.290Z,102409.69
2023-01-30T19:54:14.600Z,102406.00
2023-01-30T19:56:47.623Z,102417.41
2023-01-30T19:59:16.951Z,102424.34
2023-01-30T20:01:47.023Z,102415.78
2023-01-30T20:04:15.678Z,102414.16
2023-01-30T20:06:45.971Z,102390.19
2023-01-30T20:09:16.244Z,102417.72
2023-01-30T20:11:44.924Z,102427.97
2023-01-30T20:14:13.517Z,102434.34
2023-01-30T20:16:42.238Z,102429.81
2023-01-30T20:19:16.097Z,102402.38
2023-01-30T20:21:45.716Z,102436.00
2023-01-30T20:24:15.141Z,102419.25
2023-01-30T20:26:47.140Z,102430.34
2023-01-30T20:29:18.215Z,102418.63
2023-01-30T20:31:46.624Z,102443.09
2023-01-30T20:34:16.575Z,102437.25
2023-01-30T20:36:45.039Z,102433.50
2023-01-30T20:39:14.932Z,102428.31
2023-01-30T20:41:43.625Z,102426.59
2023-01-30T20:44:14.782Z,102423.00
2023-01-30T20:46:45.840Z,102429.25
2023-01-30T20:49:17.867Z,102423.84
2023-01-30T20:51:47.279Z,102426.34
2023-01-30T20:54:16.574Z,102425.19
2023-01-30T20:56:47.451Z,102416.59
2023-01-30T20:59:18.302Z,102417.97
2023-01-30T21:01:47.550Z,102425.25
2023-01-30T21:04:19.084Z,102407.41
2023-01-30T21:06:47.822Z,102417.94
2023-01-30T21:09:18.650Z,102412.63
2023-01-30T21:11:47.614Z,102414.06
2023-01-30T21:14:17.481Z,102404.78
2023-01-30T21:16:46.309Z,102400.38
2023-01-30T21:19:18.259Z,102414.13
2023-01-30T21:21:51.514Z,102408.88
2023-01-30T21:24:23.892Z,102411.81
2023-01-30T21:26:52.962Z,102411.81
2023-01-30T21:29:25.044Z,102420.78
2023-01-30T21:31:53.680Z,102425.09
2023-01-30T21:34:23.976Z,102422.09
2023-01-30T21:37:06.525Z,102439.56
2023-01-30T21:39:52.376Z,102421.28
2023-01-30T21:42:39.227Z,102420.34
2023-01-30T21:45:09.151Z,102424.31
2023-01-30T21:47:37.538Z,102429.47
2023-01-30T21:50:08.712Z,102402.97
2023-01-30T21:52:37.052Z,102432.47
2023-01-30T21:55:06.565Z,102423.91
2023-01-30T21:57:35.179Z,102428.81
2023-01-30T22:00:04.161Z,102442.78
2023-01-30T22:02:33.468Z,102437.53
2023-01-30T22:05:01.878Z,102434.34
2023-01-30T22:07:32.345Z,102424.69
2023-01-30T22:10:01.548Z,102433.03
2023-01-30T22:12:31.628Z,102430.53
2023-01-30T22:15:00.020Z,102433.78
2023-01-30T22:17:28.795Z,102432.34
2023-01-30T22:19:57.185Z,102419.34
2023-01-30T22:22:27.283Z,102418.41
2023-01-30T22:24:57.024Z,102413.19
2023-01-30T22:27:25.302Z,102405.25
2023-01-30T22:29:54.042Z,102415.13
2023-01-30T22:32:22.651Z,102411.81
2023-01-30T22:34:54.645Z,102410.94
2023-01-30T22:37:23.048Z,102398.97
2023-01-30T22:39:51.302Z,102390.75
2023-01-30T22:42:21.065Z,102383.63
2023-01-30T22:44:49.818Z,102388.91
2023-01-30T22:47:18.138Z,102391.50
2023-01-30T22:49:46.635Z,102390.59
2023-01-30T22:52:15.248Z,102388.56
2023-01-30T22:54:43.555Z,102390.09
2023-01-30T22:57:11.850Z,102390.63
2023-01-30T22:59:41.516Z,102381.50
2023-01-30T23:02:10.324Z,102376.94
2023-01-30T23:04:39.113Z,102385.94
2023-01-30T23:07:07.530Z,102383.09
2023-01-30T23:09:35.946Z,102374.97
2023-01-30T23:12:21.988Z,102378.47
2023-01-30T23:14:51.957Z,102380.16
2023-01-30T23:17:37.963Z,102380.19
2023-01-30T23:20:07.735Z,102380.00
2023-01-30T23:22:36.036Z,102376.47
2023-01-30T23:25:05.545Z,102366.28
2023-01-30T23:27:33.788Z,102358.31
2023-01-30T23:30:03.613Z,102346.75
2023-01-30T23:32:31.996Z,102366.41
2023-01-30T23:35:00.319Z,102366.41
2023-01-30T23:37:42.506Z,102359.31
2023-01-30T23:40:12.627Z,102368.16
2023-01-30T23:42:41.015Z,102367.44
2023-01-30T23:45:12.074Z,102363.09
2023-01-30T23:47:40.410Z,102358.75
2023-01-30T23:50:09.621Z,102352.59
2023-01-30T23:52:37.906Z,102343.50
2023-01-30T23:55:07.658Z,102346.00
2023-01-30T23:57:36.285Z,102348.78
